createdAt,value
2018-05-09T00:01:54.059Z,99370.48
2018-05-09T00:04:21.443Z,99367.38
2018-05-09T00:06:48.834Z,99373.56
2018-05-09T00:09:16.216Z,99371.31
2018-05-09T00:11:43.603Z,99364.95
2018-05-09T00:14:10.986Z,99368.73
2018-05-09T00:16:38.371Z,99372.66
2018-05-09T00:19:05.756Z,99364.16
2018-05-09T00:21:33.146Z,99369.41
2018-05-09T00:24:00.567Z,99371.02
2018-05-09T00:26:27.958Z,99368.16
2018-05-09T00:28:55.343Z,99365.09
2018-05-09T00:31:22.723Z,99364.95
2018-05-09T00:33:50.120Z,99367.64
2018-05-09T00:36:17.508Z,99364.42
2018-05-09T00:38:44.887Z,99367.95
2018-05-09T00:41:12.273Z,99362.98
2018-05-09T00:43:39.655Z,99352.02
2018-05-09T00:46:07.044Z,99362.09
2018-05-09T00:48:34.428Z,99360.21
2018-05-09T00:51:01.811Z,99351.45
2018-05-09T00:53:29.207Z,99351.20
2018-05-09T00:55:56.594Z,99349.22
2018-05-09T00:58:23.976Z,99352.95
2018-05-09T01:00:51.363Z,99355.92
2018-05-09T01:03:18.746Z,99346.00
2018-05-09T01:05:46.187Z,99350.67
2018-05-09T01:08:13.567Z,99343.83
2018-05-09T01:10:41.035Z,99349.44
2018-05-09T01:13:08.471Z,99343.67
2018-05-09T01:15:36.230Z,99346.80
2018-05-09T01:18:03.615Z,99346.16
2018-05-09T01:20:30.994Z,99345.33
2018-05-09T01:22:58.387Z,99346.84
2018-05-09T01:25:25.763Z,99344.55
2018-05-09T01:27:53.151Z,99343.47
2018-05-09T01:30:20.535Z,99339.25
2018-05-09T01:32:47.934Z,99340.35
2018-05-09T01:35:15.321Z,99338.59
2018-05-09T01:37:42.711Z,99344.45
2018-05-09T01:40:10.091Z,99334.70
2018-05-09T01:42:37.483Z,99341.88
2018-05-09T01:45:04.875Z,99346.75
2018-05-09T01:47:32.267Z,99341.71
2018-05-09T01:49:59.656Z,99334.52
2018-05-09T01:52:27.047Z,99338.48
2018-05-09T01:54:54.429Z,99330.55
2018-05-09T01:57:21.810Z,99336.09
2018-05-09T01:59:49.207Z,99329.50
2018-05-09T02:02:16.607Z,99334.01
2018-05-09T02:04:43.991Z,99333.89
2018-05-09T02:07:11.384Z,99330.66
2018-05-09T02:09:38.759Z,99340.38
2018-05-09T02:12:06.148Z,99330.27
2018-05-09T02:14:33.539Z,99331.49
2018-05-09T02:17:00.923Z,99333.52
2018-05-09T02:19:28.307Z,99336.75
2018-05-09T02:21:55.719Z,99342.02
2018-05-09T02:24:23.103Z,99338.52
2018-05-09T02:26:50.493Z,99338.66
2018-05-09T02:29:17.875Z,99334.62
2018-05-09T02:31:45.261Z,99331.68
2018-05-09T02:34:12.656Z,99330.88
2018-05-09T02:36:40.036Z,99328.59
2018-05-09T02:39:07.435Z,99329.80
2018-05-09T02:41:34.825Z,99330.34
2018-05-09T02:44:02.199Z,99332.78
2018-05-09T02:46:29.598Z,99328.89
2018-05-09T02:48:56.986Z,99333.45
2018-05-09T02:51:24.366Z,99334.65
2018-05-09T02:53:51.757Z,99336.82
2018-05-09T02:56:19.143Z,99335.75
2018-05-09T02:58:46.531Z,99331.30
2018-05-09T03:01:14.272Z,99334.54
2018-05-09T03:03:41.658Z,99334.52
2018-05-09T03:06:09.035Z,99342.05
2018-05-09T03:08:36.423Z,99342.86
2018-05-09T03:11:03.801Z,99341.91
2018-05-09T03:13:31.192Z,99336.27
2018-05-09T03:15:58.574Z,99334.78
2018-05-09T03:18:25.959Z,99345.50
2018-05-09T03:20:53.343Z,99349.00
2018-05-09T03:23:20.737Z,99349.78
2018-05-09T03:25:48.127Z,99356.13
2018-05-09T03:28:15.771Z,99353.34
2018-05-09T03:30:43.159Z,99352.36
2018-05-09T03:33:10.546Z,99350.73
2018-05-09T03:35:37.927Z,99345.61
2018-05-09T03:38:05.315Z,99344.53
2018-05-09T03:40:32.701Z,99343.03
2018-05-09T03:43:00.083Z,99345.20
2018-05-09T03:45:27.479Z,99353.52
2018-05-09T03:47:54.867Z,99356.75
2018-05-09T03:50:22.267Z,99358.34
2018-05-09T03:52:49.651Z,99358.37
2018-05-09T03:55:17.039Z,99357.56
2018-05-09T03:57:44.427Z,99353.91
2018-05-09T04:00:11.820Z,99357.80
2018-05-09T04:02:50.943Z,99358.88
2018-05-09T04:05:30.199Z,99359.16
2018-05-09T04:08:09.356Z,99364.41
2018-05-09T04:10:36.759Z,99368.69
2018-05-09T04:13:04.220Z,99368.31
2018-05-09T04:15:31.530Z,99376.23
2018-05-09T04:17:58.994Z,99381.89
2018-05-09T04:20:26.379Z,99380.67
2018-05-09T04:22:53.839Z,99383.79
2018-05-09T04:25:21.227Z,99375.85
2018-05-09T04:27:48.609Z,99384.99
2018-05-09T04:30:15.999Z,99393.86
2018-05-09T04:32:43.387Z,99390.77
2018-05-09T04:35:10.770Z,99387.16
2018-05-09T04:37:38.159Z,99381.39
2018-05-09T04:40:05.548Z,99373.31
2018-05-09T04:42:32.932Z,99376.72
2018-05-09T04:45:00.320Z,99376.70
2018-05-09T04:47:27.704Z,99376.05
2018-05-09T04:49:55.099Z,99375.11
2018-05-09T04:52:22.481Z,99378.89
2018-05-09T04:54:49.870Z,99377.42
2018-05-09T04:57:17.259Z,99379.14
2018-05-09T04:59:44.646Z,99372.42
2018-05-09T05:02:12.040Z,99377.14
2018-05-09T05:04:39.422Z,99377.54
2018-05-09T05:07:06.851Z,99384.13
2018-05-09T05:09:34.187Z,99391.13
2018-05-09T05:12:01.599Z,99385.63
2018-05-09T05:14:28.991Z,99387.11
2018-05-09T05:16:56.378Z,99383.09
2018-05-09T05:19:23.771Z,99378.63
2018-05-09T05:21:51.151Z,99375.41
2018-05-09T05:24:18.543Z,99377.84
2018-05-09T05:26:45.928Z,99381.34
2018-05-09T05:29:13.314Z,99384.56
2018-05-09T05:31:40.699Z,99386.97
2018-05-09T05:34:08.112Z,99387.11
2018-05-09T05:36:35.491Z,99391.40
2018-05-09T05:39:02.885Z,99388.05
2018-05-09T05:41:30.263Z,99398.13
2018-05-09T05:43:57.652Z,99395.59
2018-05-09T05:46:25.044Z,99399.77
2018-05-09T05:48:52.423Z,99397.87
2018-05-09T05:51:19.807Z,99398.00
2018-05-09T05:53:47.186Z,99402.55
2018-05-09T05:56:14.576Z,99397.56
2018-05-09T05:58:41.962Z,99399.69
2018-05-09T06:01:09.367Z,99400.89
2018-05-09T06:03:36.754Z,99405.73
2018-05-09T06:06:04.153Z,99399.37
2018-05-09T06:08:31.547Z,99401.11
2018-05-09T06:10:58.930Z,99399.47
2018-05-09T06:13:26.328Z,99402.31
2018-05-09T06:15:53.710Z,99406.06
2018-05-09T06:18:21.122Z,99408.31
2018-05-09T06:20:48.551Z,99408.16
2018-05-09T06:23:15.924Z,99410.41
2018-05-09T06:25:43.311Z,99416.03
2018-05-09T06:28:10.705Z,99413.17
2018-05-09T06:30:38.145Z,99419.05
2018-05-09T06:33:05.523Z,99420.77
2018-05-09T06:35:32.974Z,99425.81
2018-05-09T06:38:00.359Z,99424.16
2018-05-09T06:40:27.751Z,99427.74
2018-05-09T06:42:55.138Z,99432.14
2018-05-09T06:45:22.518Z,99429.80
2018-05-09T06:47:49.907Z,99433.64
2018-05-09T06:50:17.300Z,99431.55
2018-05-09T06:52:44.679Z,99423.52
2018-05-09T06:55:12.067Z,99426.67
2018-05-09T06:57:39.481Z,99426.59
2018-05-09T07:00:06.872Z,99425.42
2018-05-09T07:02:34.257Z,99429.77
2018-05-09T07:05:01.631Z,99429.77
2018-05-09T07:07:29.022Z,99437.19
2018-05-09T07:09:56.419Z,99442.78
2018-05-09T07:12:23.811Z,99434.84
2018-05-09T07:14:51.199Z,99436.95
2018-05-09T07:17:18.587Z,99430.63
2018-05-09T07:19:45.973Z,99436.18
2018-05-09T07:22:13.370Z,99434.61
2018-05-09T07:24:40.740Z,99428.34
2018-05-09T07:27:08.148Z,99430.52
2018-05-09T07:29:35.531Z,99432.77
2018-05-09T07:32:02.923Z,99434.22
2018-05-09T07:34:30.303Z,99432.38
2018-05-09T07:36:57.695Z,99431.91
2018-05-09T07:39:25.084Z,99426.03
2018-05-09T07:41:52.471Z,99428.33
2018-05-09T07:44:19.855Z,99421.83
2018-05-09T07:46:47.251Z,99429.73
2018-05-09T07:49:14.634Z,99426.23
2018-05-09T07:51:42.027Z,99431.28
2018-05-09T07:54:09.417Z,99429.36
2018-05-09T07:56:36.799Z,99427.41
2018-05-09T07:59:04.191Z,99425.25
2018-05-09T08:01:31.571Z,99431.15
2018-05-09T08:03:58.978Z,99427.55
2018-05-09T08:06:26.359Z,99427.96
2018-05-09T08:08:53.751Z,99432.98
2018-05-09T08:11:21.130Z,99436.77
2018-05-09T08:13:48.515Z,99431.53
2018-05-09T08:16:15.893Z,99432.31
2018-05-09T08:18:43.287Z,99434.07
2018-05-09T08:21:10.674Z,99432.45
2018-05-09T08:23:38.064Z,99436.52
2018-05-09T08:26:05.446Z,99438.43
2018-05-09T08:28:32.835Z,99432.42
2018-05-09T08:31:00.218Z,99432.27
2018-05-09T08:33:27.603Z,99433.34
2018-05-09T08:35:54.986Z,99434.45
2018-05-09T08:38:22.370Z,99437.36
2018-05-09T08:40:49.765Z,99436.55
2018-05-09T08:43:17.249Z,99444.68
2018-05-09T08:45:44.559Z,99433.91
2018-05-09T08:48:11.940Z,99435.63
2018-05-09T08:50:39.322Z,99436.02
2018-05-09T08:53:06.715Z,99437.42
2018-05-09T08:55:34.138Z,99440.52
2018-05-09T08:58:01.491Z,99433.41
2018-05-09T09:00:28.879Z,99443.05
2018-05-09T09:02:56.266Z,99434.63
2018-05-09T09:05:23.646Z,99435.36
2018-05-09T09:07:51.103Z,99432.06
2018-05-09T09:10:18.519Z,99432.33
2018-05-09T09:12:45.888Z,99433.38
2018-05-09T09:15:13.277Z,99428.05
2018-05-09T09:17:40.663Z,99429.09
2018-05-09T09:20:08.047Z,99423.70
2018-05-09T09:22:35.432Z,99420.02
2018-05-09T09:25:02.828Z,99419.50
2018-05-09T09:27:30.203Z,99418.40
2018-05-09T09:29:57.599Z,99419.10
2018-05-09T09:32:24.983Z,99416.64
2018-05-09T09:34:52.378Z,99413.59
2018-05-09T09:37:19.756Z,99410.58
2018-05-09T09:39:47.652Z,99408.48
2018-05-09T09:42:15.027Z,99421.04
2018-05-09T09:44:42.407Z,99413.77
2018-05-09T09:47:09.801Z,99416.80
2018-05-09T09:49:37.183Z,99414.98
2018-05-09T09:52:04.715Z,99411.24
2018-05-09T09:54:32.103Z,99408.98
2018-05-09T09:56:59.547Z,99400.30
2018-05-09T09:59:26.934Z,99397.17
2018-05-09T10:01:54.331Z,99397.27
2018-05-09T10:04:21.730Z,99393.58
2018-05-09T10:06:49.199Z,99395.02
2018-05-09T10:09:16.583Z,99391.64
2018-05-09T10:11:43.983Z,99388.61
2018-05-09T10:14:11.363Z,99394.22
2018-05-09T10:16:38.746Z,99382.52
2018-05-09T10:19:06.141Z,99379.94
2018-05-09T10:21:33.516Z,99377.30
2018-05-09T10:24:00.907Z,99381.50
2018-05-09T10:26:28.302Z,99372.34
2018-05-09T10:28:55.684Z,99370.23
2018-05-09T10:31:23.076Z,99362.44
2018-05-09T10:33:50.476Z,99370.54
2018-05-09T10:36:17.858Z,99370.16
2018-05-09T10:38:45.246Z,99376.73
2018-05-09T10:41:12.630Z,99371.03
2018-05-09T10:43:40.095Z,99366.47
2018-05-09T10:46:07.485Z,99369.39
2018-05-09T10:48:34.863Z,99359.39
2018-05-09T10:51:02.255Z,99353.66
2018-05-09T10:53:29.635Z,99359.62
2018-05-09T10:55:57.024Z,99357.52
2018-05-09T10:58:24.425Z,99355.19
2018-05-09T11:00:51.804Z,99353.60
2018-05-09T11:03:19.195Z,99351.23
2018-05-09T11:05:46.582Z,99343.89
2018-05-09T11:08:13.967Z,99339.02
2018-05-09T11:10:41.815Z,99339.13
2018-05-09T11:13:09.200Z,99342.54
2018-05-09T11:15:36.586Z,99330.69
2018-05-09T11:18:03.979Z,99331.77
2018-05-09T11:20:31.375Z,99331.56
2018-05-09T11:22:58.779Z,99336.22
2018-05-09T11:25:26.163Z,99329.32
2018-05-09T11:27:53.555Z,99331.20
2018-05-09T11:30:20.948Z,99332.68
2018-05-09T11:32:48.527Z,99328.48
2018-05-09T11:35:15.912Z,99331.58
2018-05-09T11:37:43.295Z,99328.11
2018-05-09T11:40:10.687Z,99317.94
2018-05-09T11:42:38.071Z,99314.07
2018-05-09T11:45:05.468Z,99314.07
2018-05-09T11:47:32.931Z,99313.39
2018-05-09T11:50:00.319Z,99311.23
2018-05-09T11:52:27.700Z,99294.39
2018-05-09T11:54:55.093Z,99291.71
2018-05-09T11:57:22.472Z,99305.52
2018-05-09T11:59:49.864Z,99298.60
2018-05-09T12:02:17.266Z,99298.80
2018-05-09T12:04:44.639Z,99289.73
2018-05-09T12:07:12.028Z,99292.89
2018-05-09T12:09:39.415Z,99280.70
2018-05-09T12:12:06.808Z,99284.08
2018-05-09T12:14:34.187Z,99274.63
2018-05-09T12:17:01.575Z,99277.92
2018-05-09T12:19:28.971Z,99272.91
2018-05-09T12:21:56.359Z,99283.86
2018-05-09T12:24:23.747Z,99284.87
2018-05-09T12:26:51.140Z,99273.88
2018-05-09T12:29:18.527Z,99277.37
2018-05-09T12:31:45.915Z,99272.70
2018-05-09T12:34:13.299Z,99269.13
2018-05-09T12:36:40.686Z,99274.09
2018-05-09T12:39:08.079Z,99265.36
2018-05-09T12:41:35.467Z,99255.84
2018-05-09T12:44:02.850Z,99252.10
2018-05-09T12:46:30.235Z,99252.09
2018-05-09T12:48:57.619Z,99258.15
2018-05-09T12:51:25.007Z,99257.58
2018-05-09T12:53:52.402Z,99247.19
2018-05-09T12:56:19.776Z,99241.86
2018-05-09T12:58:47.162Z,99242.41
2018-05-09T13:01:14.546Z,99241.63
2018-05-09T13:03:41.935Z,99235.67
2018-05-09T13:06:09.327Z,99227.59
2018-05-09T13:08:36.726Z,99225.91
2018-05-09T13:11:04.108Z,99221.44
2018-05-09T13:13:31.487Z,99222.05
2018-05-09T13:15:58.878Z,99216.55
2018-05-09T13:18:26.261Z,99221.25
2018-05-09T13:20:53.646Z,99222.73
2018-05-09T13:23:21.039Z,99218.39
2018-05-09T13:25:48.477Z,99211.13
2018-05-09T13:28:15.955Z,99204.33
2018-05-09T13:30:43.347Z,99203.69
2018-05-09T13:33:10.735Z,99208.41
2018-05-09T13:35:38.121Z,99206.47
2018-05-09T13:38:05.506Z,99204.68
2018-05-09T13:40:33.230Z,99202.31
2018-05-09T13:43:00.619Z,99203.02
2018-05-09T13:45:27.995Z,99202.06
2018-05-09T13:47:55.384Z,99200.68
2018-05-09T13:50:22.782Z,99196.70
2018-05-09T13:52:50.215Z,99199.23
2018-05-09T13:55:17.603Z,99195.27
2018-05-09T13:57:44.986Z,99192.84
2018-05-09T14:00:12.485Z,99187.11
2018-05-09T14:02:39.870Z,99183.85
2018-05-09T14:05:07.283Z,99179.88
2018-05-09T14:07:34.672Z,99181.80
2018-05-09T14:10:02.092Z,99179.54
2018-05-09T14:12:29.447Z,99182.91
2018-05-09T14:14:56.839Z,99176.72
2018-05-09T14:17:24.221Z,99180.97
2018-05-09T14:19:51.614Z,99175.45
2018-05-09T14:22:19.003Z,99174.31
2018-05-09T14:24:46.401Z,99174.94
2018-05-09T14:27:13.874Z,99178.71
2018-05-09T14:29:41.178Z,99171.36
2018-05-09T14:32:08.692Z,99173.95
2018-05-09T14:34:36.040Z,99169.73
2018-05-09T14:37:03.435Z,99165.48
2018-05-09T14:39:30.847Z,99167.39
2018-05-09T14:41:58.232Z,99165.75
2018-05-09T14:44:25.629Z,99168.02
2018-05-09T14:46:53.019Z,99161.58
2018-05-09T14:49:20.417Z,99157.23
2018-05-09T14:51:47.787Z,99155.98
2018-05-09T14:54:15.175Z,99153.79
2018-05-09T14:56:42.571Z,99152.17
2018-05-09T14:59:09.971Z,99147.42
2018-05-09T15:01:37.362Z,99149.27
2018-05-09T15:04:04.747Z,99140.19
2018-05-09T15:06:32.138Z,99135.98
2018-05-09T15:08:59.525Z,99137.09
2018-05-09T15:11:26.907Z,99144.30
2018-05-09T15:13:54.308Z,99141.14
2018-05-09T15:16:21.692Z,99146.39
2018-05-09T15:18:49.091Z,99137.27
2018-05-09T15:21:16.483Z,99132.39
2018-05-09T15:23:43.867Z,99132.24
2018-05-09T15:26:11.247Z,99127.06
2018-05-09T15:28:38.636Z,99122.76
2018-05-09T15:31:06.078Z,99126.00
2018-05-09T15:33:33.512Z,99131.98
2018-05-09T15:36:00.933Z,99129.73
2018-05-09T15:38:28.319Z,99127.34
2018-05-09T15:40:55.700Z,99125.84
2018-05-09T15:43:23.084Z,99125.56
2018-05-09T15:45:50.472Z,99121.16
2018-05-09T15:48:17.862Z,99130.46
2018-05-09T15:50:45.255Z,99129.25
2018-05-09T15:53:12.634Z,99126.45
2018-05-09T15:55:40.032Z,99124.19
2018-05-09T15:58:07.411Z,99130.17
2018-05-09T16:00:34.794Z,99130.51
2018-05-09T16:03:02.180Z,99125.88
2018-05-09T16:05:29.563Z,99125.45
2018-05-09T16:07:56.955Z,99123.89
2018-05-09T16:10:24.430Z,99118.39
2018-05-09T16:12:51.730Z,99118.03
2018-05-09T16:15:19.112Z,99115.59
2018-05-09T16:17:46.515Z,99110.52
2018-05-09T16:20:13.895Z,99116.84
2018-05-09T16:22:41.345Z,99109.19
2018-05-09T16:25:08.686Z,99111.91
2018-05-09T16:27:36.151Z,99109.38
2018-05-09T16:30:03.561Z,99110.97
2018-05-09T16:32:30.943Z,99108.56
2018-05-09T16:34:58.337Z,99103.70
2018-05-09T16:37:25.719Z,99109.26
2018-05-09T16:39:53.115Z,99106.73
2018-05-09T16:42:20.501Z,99107.70
2018-05-09T16:44:47.883Z,99103.73
2018-05-09T16:47:15.263Z,99106.97
2018-05-09T16:49:42.658Z,99104.11
2018-05-09T16:52:10.040Z,99105.11
2018-05-09T16:54:37.427Z,99105.30
2018-05-09T16:57:04.830Z,99104.30
2018-05-09T16:59:32.204Z,99106.01
2018-05-09T17:01:59.603Z,99106.41
2018-05-09T17:04:26.983Z,99106.38
2018-05-09T17:06:54.368Z,99111.17
2018-05-09T17:09:21.908Z,99110.41
2018-05-09T17:11:49.291Z,99107.38
2018-05-09T17:14:16.679Z,99103.03
2018-05-09T17:16:44.063Z,99099.16
2018-05-09T17:19:11.449Z,99100.94
2018-05-09T17:24:57.259Z,99102.23
2018-05-09T17:27:24.639Z,99102.54
2018-05-09T17:29:52.028Z,99101.03
2018-05-09T17:32:19.410Z,99103.20
2018-05-09T17:34:46.804Z,99097.95
2018-05-09T17:37:14.183Z,99094.77
2018-05-09T17:39:41.580Z,99098.06
2018-05-09T17:42:08.971Z,99094.17
2018-05-09T17:44:36.359Z,99095.26
2018-05-09T17:47:03.750Z,99096.41
2018-05-09T17:49:31.134Z,99094.05
2018-05-09T17:51:58.543Z,99095.00
2018-05-09T17:54:25.935Z,99095.50
2018-05-09T17:56:53.310Z,99090.34
2018-05-09T17:59:20.703Z,99088.58
2018-05-09T18:01:48.091Z,99086.92
2018-05-09T18:04:15.480Z,99090.22
2018-05-09T18:06:42.858Z,99088.61
2018-05-09T18:09:10.251Z,99087.26
2018-05-09T18:11:37.631Z,99089.70
2018-05-09T18:14:05.383Z,99085.98
2018-05-09T18:16:32.767Z,99085.49
2018-05-09T18:19:00.172Z,99079.25
2018-05-09T18:21:27.557Z,99082.83
2018-05-09T18:23:54.927Z,99087.94
2018-05-09T18:26:22.315Z,99080.30
2018-05-09T18:28:49.703Z,99079.31
2018-05-09T18:31:17.104Z,99077.35
2018-05-09T18:33:44.487Z,99077.00
2018-05-09T18:36:11.871Z,99079.76
2018-05-09T18:38:39.267Z,99084.01
2018-05-09T18:41:06.656Z,99088.92
2018-05-09T18:43:34.045Z,99081.39
2018-05-09T18:46:01.424Z,99086.61
2018-05-09T18:48:28.818Z,99084.95
2018-05-09T18:50:56.198Z,99090.88
2018-05-09T18:53:23.587Z,99090.12
2018-05-09T18:55:51.067Z,99088.20
2018-05-09T18:58:18.440Z,99095.34
2018-05-09T19:00:45.835Z,99096.46
2018-05-09T19:03:13.214Z,99093.23
2018-05-09T19:05:40.608Z,99100.77
2018-05-09T19:08:08.000Z,99101.75
2018-05-09T19:10:35.383Z,99104.30
2018-05-09T19:13:02.771Z,99104.88
2018-05-09T19:15:30.159Z,99104.88
2018-05-09T19:17:57.543Z,99101.73
2018-05-09T19:20:24.923Z,99105.91
2018-05-09T19:22:52.336Z,99102.64
2018-05-09T19:25:19.720Z,99103.66
2018-05-09T19:27:47.111Z,99100.16
2018-05-09T19:30:14.494Z,99099.91
2018-05-09T19:32:41.902Z,99096.00
2018-05-09T19:35:09.291Z,99091.75
2018-05-09T19:37:36.671Z,99098.86
2018-05-09T19:40:04.062Z,99094.64
2018-05-09T19:42:31.451Z,99097.73
2018-05-09T19:44:58.888Z,99101.03
2018-05-09T19:47:26.276Z,99106.38
2018-05-09T19:49:53.683Z,99105.52
2018-05-09T19:52:21.055Z,99106.48
2018-05-09T19:54:48.652Z,99106.28
2018-05-09T19:57:16.031Z,99107.23
2018-05-09T19:59:43.419Z,99102.75
2018-05-09T20:02:10.811Z,99106.94
2018-05-09T20:04:38.203Z,99108.70
2018-05-09T20:07:05.583Z,99106.45
2018-05-09T20:09:33.051Z,99110.20
2018-05-09T20:12:00.440Z,99111.08
2018-05-09T20:14:27.899Z,99110.91
2018-05-09T20:16:55.332Z,99110.06
2018-05-09T20:19:22.715Z,99107.72
2018-05-09T20:21:50.271Z,99112.14
2018-05-09T20:24:17.662Z,99103.98
2018-05-09T20:26:45.043Z,99105.11
2018-05-09T20:29:12.427Z,99108.38
2018-05-09T20:31:56.599Z,99109.50
2018-05-09T20:34:23.995Z,99102.52
2018-05-09T20:36:51.400Z,99108.37
2018-05-09T20:39:18.795Z,99108.36
2018-05-09T20:41:46.179Z,99102.58
2018-05-09T20:44:13.572Z,99101.08
2018-05-09T20:46:40.953Z,99106.89
2018-05-09T20:49:08.359Z,99101.38
2018-05-09T20:51:47.363Z,99099.86
2018-05-09T20:54:14.759Z,99107.41
2018-05-09T20:56:42.325Z,99108.83
2018-05-09T20:59:09.702Z,99111.95
2018-05-09T21:01:48.992Z,99109.22
2018-05-09T21:04:16.384Z,99119.06
2018-05-09T21:06:43.769Z,99113.55
2018-05-09T21:09:11.167Z,99125.30
2018-05-09T21:11:38.531Z,99136.78
2018-05-09T21:14:05.915Z,99136.52
2018-05-09T21:16:33.306Z,99138.09
2018-05-09T21:19:00.700Z,99129.58
2018-05-09T21:21:28.103Z,99131.87
2018-05-09T21:23:55.467Z,99127.09
2018-05-09T21:26:22.855Z,99130.01
2018-05-09T21:28:50.238Z,99131.77
2018-05-09T21:31:17.626Z,99128.48
2018-05-09T21:33:45.039Z,99132.74
2018-05-09T21:36:12.907Z,99136.65
2018-05-09T21:38:40.289Z,99137.93
2018-05-09T21:41:07.666Z,99135.98
2018-05-09T21:43:35.055Z,99137.80
2018-05-09T21:46:02.444Z,99139.91
2018-05-09T21:48:29.831Z,99142.78
2018-05-09T21:50:57.215Z,99142.46
2018-05-09T21:53:24.608Z,99148.17
2018-05-09T21:55:52.062Z,99144.19
2018-05-09T21:58:19.384Z,99139.20
2018-05-09T22:00:46.763Z,99138.06
2018-05-09T22:03:14.320Z,99143.98
2018-05-09T22:05:41.699Z,99141.64
2018-05-09T22:08:09.087Z,99136.60
2018-05-09T22:10:36.474Z,99139.45
2018-05-09T22:13:03.862Z,99140.24
2018-05-09T22:15:31.250Z,99136.17
2018-05-09T22:17:58.647Z,99137.75
2018-05-09T22:20:26.036Z,99138.38
2018-05-09T22:22:53.425Z,99135.63
2018-05-09T22:25:20.807Z,99140.79
2018-05-09T22:27:48.191Z,99134.14
2018-05-09T22:30:15.948Z,99130.48
2018-05-09T22:32:43.327Z,99136.03
2018-05-09T22:35:10.715Z,99138.34
2018-05-09T22:37:38.106Z,99134.92
2018-05-09T22:40:05.482Z,99136.33
2018-05-09T22:42:32.875Z,99134.33
2018-05-09T22:45:00.259Z,99129.80
2018-05-09T22:47:27.647Z,99133.21
2018-05-09T22:49:55.031Z,99129.41
2018-05-09T22:52:22.419Z,99131.44
2018-05-09T22:54:49.892Z,99129.66
2018-05-09T22:57:17.199Z,99129.74
2018-05-09T22:59:44.579Z,99126.28
2018-05-09T23:02:11.962Z,99128.34
2018-05-09T23:04:39.355Z,99123.84
2018-05-09T23:07:06.730Z,99131.44
2018-05-09T23:09:34.183Z,99129.70
2018-05-09T23:12:01.571Z,99126.27
2018-05-09T23:14:28.960Z,99123.06
2018-05-09T23:16:56.339Z,99124.05
2018-05-09T23:19:23.735Z,99135.86
2018-05-09T23:21:51.118Z,99128.02
2018-05-09T23:24:18.521Z,99134.13
2018-05-09T23:26:45.899Z,99135.34
2018-05-09T23:29:13.279Z,99131.89
2018-05-09T23:31:40.669Z,99135.00
2018-05-09T23:34:08.050Z,99136.50
2018-05-09T23:36:35.443Z,99127.42
2018-05-09T23:39:02.823Z,99128.36
2018-05-09T23:41:30.207Z,99126.14
2018-05-09T23:43:57.591Z,99137.88
2018-05-09T23:46:24.980Z,99139.41
2018-05-09T23:48:52.362Z,99139.44
2018-05-09T23:51:19.751Z,99139.92
2018-05-09T23:53:47.147Z,99147.28
2018-05-09T23:56:14.527Z,99148.06
2018-05-09T23:58:41.922Z,99152.09
